Time;durP1;ratioP1;P1;durP2;ratioP2;P2;SDS_P1;SDS_P2;PMS_P1;PMS_P2;Temp;Humidity;BMP_temperature;BMP_pressure;BME280_temperature;BME280_humidity;BME280_pressure;Samples;Min_cycle;Max_cycle;Signal;HPM_P1;HPM_P2
2022/08/04 00:02:23;;;;;;;2.70;2.33;;;;;;;26.11;45.21;95544.88;4905323;29;20201;-80
2022/08/04 00:05:00;;;;;;;2.47;2.08;;;;;;;26.10;45.21;95547.78;4898608;29;20209;-79
2022/08/04 00:07:35;;;;;;;2.88;2.40;;;;;;;26.02;45.03;95543.84;4907451;29;20230;-80
2022/08/04 00:10:03;;;;;;;3.30;2.65;;;;;;;25.98;45.05;95545.47;4899670;29;20575;-80
2022/08/04 00:12:33;;;;;;;3.45;2.60;;;;;;;25.94;45.59;95543.66;4902615;29;20203;-80
2022/08/04 00:15:01;;;;;;;2.63;2.40;;;;;;;25.91;45.73;95542.38;4901007;29;20203;-79
2022/08/04 00:17:32;;;;;;;2.90;2.60;;;;;;;25.90;45.61;95548.69;4889232;29;20246;-78
2022/08/04 00:20:00;;;;;;;2.15;2.05;;;;;;;25.89;45.22;95549.75;4890471;29;20762;-80
2022/08/04 00:22:30;;;;;;;2.65;2.45;;;;;;;25.87;45.41;95546.59;4903174;29;20706;-80
2022/08/04 00:25:01;;;;;;;2.78;2.20;;;;;;;25.86;45.79;95544.25;4901428;29;20211;-81
2022/08/04 00:27:29;;;;;;;2.45;2.25;;;;;;;25.80;45.31;95544.25;4889298;29;20228;-80
2022/08/04 00:29:56;;;;;;;2.42;2.22;;;;;;;25.79;45.70;95547.16;4893966;29;20231;-80
2022/08/04 00:32:23;;;;;;;2.92;2.30;;;;;;;25.80;45.79;95549.53;4891989;29;20228;-79
2022/08/04 00:34:51;;;;;;;2.95;2.30;;;;;;;25.75;45.86;95551.44;4894282;29;20237;-80
2022/08/04 00:37:21;;;;;;;3.45;2.50;;;;;;;25.70;46.01;95546.19;4908117;29;20283;-79
2022/08/04 00:39:49;;;;;;;2.58;2.30;;;;;;;25.65;46.29;95539.09;4903196;29;20223;-79
2022/08/04 00:42:33;;;;;;;2.40;2.20;;;;;;;25.69;45.77;95540.13;4900491;29;20223;-80
2022/08/04 00:45:14;;;;;;;3.85;2.17;;;;;;;25.72;46.21;95544.84;4901763;29;20735;-79
2022/08/04 00:47:56;;;;;;;3.33;2.42;;;;;;;25.70;46.09;95533.78;4891951;29;20225;-79
2022/08/04 00:50:33;;;;;;;2.75;2.55;;;;;;;25.67;45.96;95539.59;4905927;29;20278;-80
2022/08/04 00:53:08;;;;;;;2.60;2.40;;;;;;;25.60;46.55;95535.66;4888073;29;20231;-81
2022/08/04 00:56:04;;;;;;;2.30;2.20;;;;;;;25.53;47.18;95546.50;4889123;29;20683;-79
2022/08/04 00:58:42;;;;;;;2.63;2.22;;;;;;;25.39;47.75;95545.53;4892311;29;20324;-81
2022/08/04 01:01:17;;;;;;;2.22;2.13;;;;;;;25.30;47.97;95549.78;4899685;29;20203;-80
2022/08/04 01:04:02;;;;;;;2.28;2.08;;;;;;;25.18;48.99;95549.31;4886416;29;20234;-79
2022/08/04 01:06:39;;;;;;;2.10;1.90;;;;;;;25.00;49.59;95545.41;4890189;29;20271;-80
2022/08/04 01:09:34;;;;;;;2.75;2.47;;;;;;;24.95;49.83;95542.78;4887649;29;20210;-78
2022/08/04 01:12:11;;;;;;;2.70;1.95;;;;;;;24.92;49.98;95546.69;4894439;29;20207;-79
2022/08/04 01:14:51;;;;;;;2.25;2.00;;;;;;;24.88;50.25;95544.84;4888666;29;20230;-79
2022/08/04 01:17:21;;;;;;;2.50;2.30;;;;;;;24.87;49.82;95543.28;4886876;29;20223;-79
2022/08/04 01:20:01;;;;;;;3.92;2.30;;;;;;;24.81;50.80;95545.16;4890384;29;20724;-80
2022/08/04 01:22:56;;;;;;;2.20;2.00;;;;;;;24.82;50.57;95549.38;4891327;29;20212;-80
2022/08/04 01:25:45;;;;;;;2.95;2.25;;;;;;;24.86;50.54;95550.41;4856761;29;20196;-79
2022/08/04 01:28:29;;;;;;;2.38;2.17;;;;;;;24.84;50.77;95552.50;4886194;29;20255;-80
2022/08/04 01:31:02;;;;;;;2.40;2.20;;;;;;;24.76;50.71;95550.44;4895869;29;20223;-80
2022/08/04 01:33:31;;;;;;;2.50;2.30;;;;;;;24.64;50.64;95548.06;4886737;29;20231;-79
2022/08/04 01:36:04;;;;;;;2.47;2.28;;;;;;;24.57;51.26;95544.13;4887987;29;20200;-80
2022/08/04 01:38:34;;;;;;;2.40;2.20;;;;;;;24.43;51.53;95542.06;4887160;29;20246;-79
2022/08/04 01:41:04;;;;;;;2.63;2.15;;;;;;;24.33;51.78;95549.16;4887806;29;20260;-81
2022/08/04 01:43:32;;;;;;;5.38;2.55;;;;;;;24.33;51.47;95547.31;4887367;29;20235;-78
2022/08/04 01:46:03;;;;;;;2.40;2.20;;;;;;;24.29;52.12;95540.19;4898122;29;20671;-79
2022/08/04 01:48:30;;;;;;;2.75;2.38;;;;;;;24.21;52.42;95543.34;4907012;29;20210;-80
2022/08/04 01:50:59;;;;;;;2.83;2.33;;;;;;;24.05;52.98;95543.31;4896047;29;20258;-81
2022/08/04 01:53:31;;;;;;;2.67;2.38;;;;;;;24.05;53.04;95547.81;4904657;29;20234;-80
2022/08/04 01:55:58;;;;;;;2.60;2.20;;;;;;;24.04;52.68;95546.22;4896066;29;20318;-79
2022/08/04 01:58:25;;;;;;;2.58;2.38;;;;;;;24.03;53.38;95547.28;4890343;29;20219;-80
2022/08/04 02:00:58;;;;;;;2.60;2.17;;;;;;;24.01;52.75;95544.13;4904791;29;20263;-79
2022/08/04 02:03:26;;;;;;;2.83;2.33;;;;;;;24.05;52.64;95540.69;4901182;29;20234;-79
2022/08/04 02:05:59;;;;;;;4.35;2.40;;;;;;;23.98;53.55;95548.06;4897248;29;20207;-80
2022/08/04 02:08:37;;;;;;;2.75;2.55;;;;;;;23.95;53.70;95551.19;4893289;29;20195;-79
2022/08/04 02:11:13;;;;;;;2.67;2.47;;;;;;;23.96;53.13;95552.78;4904872;29;20504;-80
2022/08/04 02:13:53;;;;;;;4.60;2.63;;;;;;;23.84;53.96;95544.34;4894754;29;20230;-79
2022/08/04 02:16:32;;;;;;;3.78;2.50;;;;;;;23.81;54.01;95544.88;4897012;29;21891;-79
2022/08/04 02:19:04;;;;;;;4.35;2.25;;;;;;;23.82;53.89;95546.47;4894086;29;20231;-79
2022/08/04 02:21:32;;;;;;;3.13;2.80;;;;;;;23.87;53.45;95546.44;4885827;29;20207;-80
2022/08/04 02:24:05;;;;;;;3.03;2.47;;;;;;;23.83;54.16;95549.88;4885696;29;20294;-79
2022/08/04 02:26:34;;;;;;;2.60;2.40;;;;;;;23.88;53.92;95552.50;4897969;29;20215;-78
2022/08/04 02:29:07;;;;;;;2.45;2.35;;;;;;;23.90;53.84;95547.78;4904599;29;20227;-79
2022/08/04 02:31:40;;;;;;;2.47;2.22;;;;;;;23.87;54.12;95554.34;4891154;29;20199;-80
2022/08/04 02:34:16;;;;;;;4.05;2.38;;;;;;;23.97;53.60;95551.72;4884976;29;20247;-80
2022/08/04 02:36:43;;;;;;;3.05;2.33;;;;;;;23.98;53.36;95550.69;4898584;29;20257;-80
2022/08/04 02:39:12;;;;;;;4.43;2.35;;;;;;;23.93;53.39;95550.66;4904386;29;20734;-79
2022/08/04 02:41:40;;;;;;;2.70;2.50;;;;;;;23.80;54.30;95556.44;4887952;29;20208;-79
2022/08/04 02:44:08;;;;;;;2.58;2.38;;;;;;;23.77;54.03;95547.22;4885162;29;20247;-79
2022/08/04 02:46:37;;;;;;;3.45;2.55;;;;;;;23.64;54.71;95550.38;4887501;29;20235;-80
2022/08/04 02:49:05;;;;;;;4.55;2.35;;;;;;;23.65;54.15;95543.28;4885604;29;20203;-79
2022/08/04 02:51:35;;;;;;;3.00;2.45;;;;;;;23.66;54.24;95545.63;4897990;29;20288;-80
2022/08/04 02:54:05;;;;;;;2.90;2.70;;;;;;;23.59;55.03;95539.03;4903473;29;20245;-80
2022/08/04 02:56:34;;;;;;;4.03;2.53;;;;;;;23.48;55.54;95535.53;4889595;29;20228;-80
2022/08/04 02:59:03;;;;;;;3.15;2.50;;;;;;;23.46;55.67;95536.88;4893491;29;20251;-80
2022/08/04 03:01:30;;;;;;;3.45;2.50;;;;;;;23.47;55.70;95535.84;4902680;29;20202;-79
2022/08/04 03:04:09;;;;;;;4.40;3.10;;;;;;;23.46;55.35;95532.41;4893914;29;20260;-80
2022/08/04 03:06:59;;;;;;;2.65;2.45;;;;;;;23.45;55.86;95532.66;4895474;29;20445;-81
2022/08/04 03:10:00;;;;;;;5.55;2.50;;;;;;;23.47;55.68;95528.72;4886118;29;20393;-81
2022/08/04 03:12:46;;;;;;;2.70;2.50;;;;;;;23.42;55.95;95537.38;4885715;29;20213;-80
2022/08/04 03:15:35;;;;;;;2.70;2.50;;;;;;;23.43;55.98;95538.19;4888432;29;20207;-79
2022/08/04 03:18:29;;;;;;;2.88;2.67;;;;;;;23.44;56.16;95529.25;4887308;29;20223;-80
2022/08/04 03:21:23;;;;;;;3.45;2.45;;;;;;;23.41;55.96;95530.56;4890762;29;20227;-79
2022/08/04 03:24:25;;;;;;;8.77;3.10;;;;;;;23.26;56.89;95537.59;4886416;29;20522;-80
2022/08/04 03:27:11;;;;;;;3.85;2.58;;;;;;;23.21;57.03;95535.72;4884683;29;20227;-80
2022/08/04 03:30:14;;;;;;;3.13;2.53;;;;;;;23.18;57.18;95538.88;4885913;29;20689;-79
2022/08/04 03:33:29;;;;;;;2.70;2.50;;;;;;;23.24;57.01;95537.06;4885223;29;20273;-79
2022/08/04 03:36:37;;;;;;;4.60;2.55;;;;;;;23.13;57.30;95538.03;4873180;29;20207;-81
2022/08/04 03:39:48;;;;;;;3.90;2.60;;;;;;;23.03;57.84;95541.44;4886289;29;20257;-79
2022/08/04 03:42:42;;;;;;;3.05;2.40;;;;;;;22.97;57.88;95540.59;4880884;29;20255;-81
2022/08/04 03:45:45;;;;;;;3.30;2.60;;;;;;;22.91;58.46;95535.56;4886035;29;20207;-80
2022/08/04 03:48:56;;;;;;;3.33;2.90;;;;;;;22.86;58.49;95538.97;4889123;29;20488;-80
2022/08/04 03:54:44;;;;;;;3.75;2.60;;;;;;;22.86;59.40;95540.81;4886461;29;20310;-79
2022/08/04 03:57:38;;;;;;;4.38;2.60;;;;;;;22.95;58.24;95540.06;4916002;29;20221;-79
2022/08/04 04:00:08;;;;;;;3.70;2.60;;;;;;;23.13;58.46;95545.94;4905394;29;20230;-79
2022/08/04 04:03:08;;;;;;;2.92;2.30;;;;;;;23.41;57.85;95546.31;4901482;29;20728;-80
2022/08/04 04:06:10;;;;;;;2.83;2.63;;;;;;;23.60;56.65;95545.88;4883456;29;20215;-80
2022/08/04 04:08:58;;;;;;;3.10;2.72;;;;;;;23.63;55.64;95548.78;4896212;29;20202;-79
2022/08/04 04:11:46;;;;;;;2.85;2.65;;;;;;;23.66;55.26;95548.28;4897996;29;20200;-79
2022/08/04 04:14:23;;;;;;;3.53;2.72;;;;;;;23.63;56.09;95546.16;4881930;29;20246;-79
2022/08/04 04:17:08;;;;;;;3.60;2.60;;;;;;;23.63;55.60;95546.16;4892455;29;20264;-80
2022/08/04 04:20:13;;;;;;;3.90;3.20;;;;;;;23.66;55.42;95548.28;4884009;29;20249;-79
2022/08/04 04:22:59;;;;;;;4.93;3.13;;;;;;;23.74;54.86;95553.00;4884086;29;20289;-78
2022/08/04 04:25:35;;;;;;;6.55;3.15;;;;;;;23.62;55.28;95549.84;4920553;29;20266;-78
2022/08/04 04:28:21;;;;;;;4.28;2.70;;;;;;;23.58;56.10;95548.75;4901730;29;20262;-81
2022/08/04 04:31:02;;;;;;;6.53;3.10;;;;;;;23.80;56.10;95551.19;4897143;29;20231;-81
2022/08/04 04:33:43;;;;;;;6.25;3.45;;;;;;;23.96;54.62;95547.53;4896775;29;20238;-80
2022/08/04 04:36:16;;;;;;;4.43;3.10;;;;;;;24.03;54.96;95549.91;4899336;29;20210;-81
2022/08/04 04:39:01;;;;;;;12.02;3.90;;;;;;;24.21;53.89;95543.34;4905509;29;20261;-79
2022/08/04 04:41:52;;;;;;;5.90;2.90;;;;;;;24.17;53.93;95548.34;4901155;29;20246;-78
2022/08/04 04:44:43;;;;;;;6.30;2.95;;;;;;;24.19;53.73;95551.50;4903339;29;20226;-77
2022/08/04 04:47:18;;;;;;;3.55;3.20;;;;;;;24.23;53.25;95547.28;4904321;29;20771;-79
2022/08/04 04:49:51;;;;;;;5.30;2.88;;;;;;;24.21;53.29;95556.50;4903873;29;20333;-78
2022/08/04 04:52:24;;;;;;;4.00;2.75;;;;;;;24.23;53.01;95560.44;4904158;29;20214;-79
2022/08/04 04:54:58;;;;;;;2.90;2.70;;;;;;;24.29;52.76;95564.66;4905945;29;20207;-78
2022/08/04 04:57:29;;;;;;;4.20;2.70;;;;;;;24.39;52.54;95561.25;4905623;29;20321;-78
2022/08/04 04:59:58;;;;;;;3.63;2.90;;;;;;;24.50;52.84;95568.09;4905916;29;20226;-77
2022/08/04 05:02:54;;;;;;;2.65;2.45;;;;;;;24.59;52.73;95566.53;4905787;29;20581;-78
2022/08/04 05:05:33;;;;;;;4.32;2.90;;;;;;;24.73;52.72;95558.84;4899150;29;20207;-77
2022/08/04 05:08:29;;;;;;;3.58;3.20;;;;;;;24.76;52.68;95568.88;4887510;29;20292;-78
2022/08/04 05:11:10;;;;;;;3.10;2.90;;;;;;;24.59;52.82;95569.16;4886100;29;20229;-78
2022/08/04 05:13:42;;;;;;;4.85;2.70;;;;;;;24.58;53.13;95561.50;4894846;29;20238;-79
2022/08/04 05:16:18;;;;;;;2.88;2.67;;;;;;;24.73;52.93;95562.28;4914361;29;20202;-78
2022/08/04 05:18:49;;;;;;;3.88;3.00;;;;;;;24.81;52.90;95558.34;4889912;29;20212;-78
2022/08/04 05:21:29;;;;;;;3.00;2.78;;;;;;;24.99;52.32;95564.91;4894830;29;20215;-79
2022/08/04 05:24:01;;;;;;;3.22;2.92;;;;;;;24.90;52.51;95564.63;4895046;29;20751;-79
2022/08/04 05:26:32;;;;;;;5.50;3.25;;;;;;;24.98;52.37;95563.31;4883371;29;20223;-79
2022/08/04 05:29:06;;;;;;;5.60;3.17;;;;;;;25.08;52.24;95560.66;4883068;29;20215;-80
2022/08/04 05:31:36;;;;;;;5.85;2.88;;;;;;;25.10;51.99;95561.16;4901081;29;20203;-79
2022/08/04 05:34:08;;;;;;;2.92;2.72;;;;;;;25.23;51.94;95562.44;4901221;29;20307;-79
2022/08/04 05:36:40;;;;;;;3.15;2.88;;;;;;;25.27;52.23;95555.56;4901631;29;20254;-79
2022/08/04 05:39:11;;;;;;;3.40;2.72;;;;;;;25.30;52.78;95565.59;4901160;29;20244;-79
2022/08/04 05:41:40;;;;;;;5.05;4.53;;;;;;;25.39;52.69;95566.63;4901033;29;20233;-80
2022/08/04 05:44:08;;;;;;;3.15;2.75;;;;;;;25.36;51.66;95559.25;4897839;29;20710;-80
2022/08/04 05:46:36;;;;;;;6.38;4.60;;;;;;;25.35;51.72;95560.31;4890889;29;20666;-79
2022/08/04 05:49:04;;;;;;;7.07;5.60;;;;;;;25.38;52.06;95559.78;4893162;29;20231;-79
2022/08/04 05:51:31;;;;;;;6.85;6.22;;;;;;;25.37;52.01;95556.34;4882809;29;20254;-80
2022/08/04 05:53:58;;;;;;;8.77;5.40;;;;;;;25.46;51.90;95557.34;4895376;29;20231;-78
2022/08/04 05:56:26;;;;;;;10.32;5.05;;;;;;;25.47;51.84;95563.41;4903269;29;20306;-79
2022/08/04 05:58:54;;;;;;;4.38;3.55;;;;;;;25.62;51.21;95559.91;4902110;29;20266;-79
2022/08/04 06:01:22;;;;;;;4.05;3.65;;;;;;;25.58;51.32;95557.03;4892908;29;20708;-79
2022/08/04 06:03:50;;;;;;;3.95;3.40;;;;;;;25.71;51.31;95558.31;4882086;29;20231;-79
2022/08/04 06:06:21;;;;;;;3.60;2.95;;;;;;;25.80;51.43;95559.31;4882715;29;20211;-78
2022/08/04 06:08:47;;;;;;;3.40;3.10;;;;;;;25.92;51.24;95557.13;4888905;29;20258;-80
2022/08/04 06:11:15;;;;;;;3.28;2.97;;;;;;;26.05;50.84;95563.63;4888443;29;20195;-79
2022/08/04 06:13:44;;;;;;;3.00;2.70;;;;;;;26.06;50.53;95565.22;4900438;29;20247;-79
2022/08/04 06:16:14;;;;;;;4.57;2.75;;;;;;;26.01;50.73;95563.41;4895998;29;20202;-79
2022/08/04 06:18:45;;;;;;;3.58;2.92;;;;;;;26.04;50.78;95567.34;4902410;29;20226;-79
2022/08/04 06:21:13;;;;;;;5.90;3.05;;;;;;;26.09;50.59;95564.69;4894524;29;20218;-79
2022/08/04 06:23:43;;;;;;;3.00;2.80;;;;;;;26.20;50.34;95570.66;4899656;29;20239;-79
2022/08/04 06:26:17;;;;;;;3.95;2.95;;;;;;;26.28;50.42;95567.44;4898841;29;20199;-79
2022/08/04 06:28:44;;;;;;;5.50;3.13;;;;;;;26.30;49.93;95560.84;4901085;29;20234;-80
2022/08/04 06:31:11;;;;;;;3.40;3.10;;;;;;;26.35;50.21;95567.97;4901049;29;20203;-79
2022/08/04 06:33:38;;;;;;;6.18;5.68;;;;;;;26.42;50.15;95569.19;4899001;29;20262;-79
2022/08/04 06:36:06;;;;;;;5.63;4.22;;;;;;;26.43;49.56;95568.13;4901928;29;20215;-80
2022/08/04 06:38:35;;;;;;;3.88;3.03;;;;;;;26.43;48.84;95562.06;4891240;29;20204;-80
2022/08/04 06:41:08;;;;;;;4.18;3.80;;;;;;;26.49;49.26;95556.47;4895531;29;20591;-79
2022/08/04 06:43:36;;;;;;;3.50;3.25;;;;;;;26.51;49.63;95558.84;4899517;29;20265;-80
2022/08/04 06:46:04;;;;;;;6.25;5.22;;;;;;;26.46;49.40;95554.38;4902146;29;20454;-80
2022/08/04 06:48:32;;;;;;;3.63;2.90;;;;;;;26.54;48.89;95562.78;4887937;29;20219;-79
2022/08/04 06:51:00;;;;;;;4.45;3.15;;;;;;;26.52;48.64;95555.13;4881660;29;20224;-80
2022/08/04 06:53:27;;;;;;;5.72;3.20;;;;;;;26.52;48.74;95560.41;4894491;29;20290;-80
2022/08/04 06:55:55;;;;;;;3.00;2.80;;;;;;;26.52;48.75;95562.28;4899558;29;20763;-79
2022/08/04 06:58:26;;;;;;;3.00;2.80;;;;;;;26.59;48.74;95557.44;4894568;29;20271;-79
2022/08/04 07:01:00;;;;;;;4.70;3.45;;;;;;;26.65;48.65;95558.97;4902173;29;20259;-79
2022/08/04 07:03:27;;;;;;;4.15;3.00;;;;;;;26.75;49.34;95564.94;4911004;29;20231;-80
2022/08/04 07:05:54;;;;;;;5.18;3.00;;;;;;;26.80;48.44;95556.97;4900996;29;20217;-79
2022/08/04 07:08:21;;;;;;;3.28;2.97;;;;;;;26.89;48.22;95566.94;4902007;29;20223;-80
2022/08/04 07:10:49;;;;;;;3.40;2.75;;;;;;;26.86;48.00;95564.84;4902153;29;20259;-80
2022/08/04 07:13:17;;;;;;;2.80;2.55;;;;;;;26.94;48.22;95567.69;4902153;29;20237;-81
2022/08/04 07:15:48;;;;;;;3.38;2.80;;;;;;;27.04;47.83;95570.25;4901734;29;20210;-81
2022/08/04 07:18:15;;;;;;;4.43;2.88;;;;;;;27.13;47.65;95570.44;4902608;29;20259;-80
2022/08/04 07:20:43;;;;;;;3.42;3.13;;;;;;;27.23;47.81;95570.31;4895250;29;20219;-81
2022/08/04 07:23:10;;;;;;;2.90;2.67;;;;;;;27.31;47.62;95563.63;4891649;29;20231;-81
2022/08/04 07:25:37;;;;;;;3.55;3.25;;;;;;;27.47;47.40;95565.00;4891411;29;20232;-79
2022/08/04 07:28:04;;;;;;;4.60;3.15;;;;;;;27.52;46.86;95576.28;4888983;29;20279;-80
2022/08/04 07:30:33;;;;;;;4.30;2.88;;;;;;;27.59;46.26;95573.34;4883559;29;20199;-79
2022/08/04 07:33:01;;;;;;;5.05;3.03;;;;;;;27.68;46.06;95570.84;4883547;29;20235;-79
2022/08/04 07:35:29;;;;;;;8.05;6.03;;;;;;;27.68;46.76;95574.28;4881871;29;20263;-80
2022/08/04 07:37:55;;;;;;;3.42;3.08;;;;;;;27.80;46.11;95563.28;4882392;29;20227;-79
2022/08/04 07:40:22;;;;;;;3.05;2.75;;;;;;;27.97;46.66;95566.19;4882219;29;20238;-79
2022/08/04 07:42:48;;;;;;;3.20;3.00;;;;;;;28.14;45.88;95563.03;4881994;29;20235;-80
2022/08/04 07:45:18;;;;;;;3.25;2.95;;;;;;;28.23;45.14;95571.94;4884432;29;20211;-81
2022/08/04 07:47:45;;;;;;;2.80;2.60;;;;;;;28.25;44.55;95572.44;4885005;29;20235;-78
2022/08/04 07:50:15;;;;;;;2.97;2.67;;;;;;;28.29;44.64;95570.78;4883928;29;20203;-80
2022/08/04 07:52:42;;;;;;;3.78;3.28;;;;;;;28.37;43.54;95564.03;4884851;29;20314;-80
2022/08/04 07:55:08;;;;;;;3.50;3.20;;;;;;;28.50;43.61;95563.28;4884531;29;20236;-81
2022/08/04 07:57:35;;;;;;;3.60;2.90;;;;;;;28.53;43.67;95554.75;4883314;29;20231;-80
2022/08/04 08:00:02;;;;;;;5.68;3.17;;;;;;;28.67;43.97;95557.47;4899882;29;20210;-80
2022/08/04 08:02:29;;;;;;;3.88;3.00;;;;;;;28.86;43.90;95555.56;4900290;29;20207;-81
2022/08/04 08:04:56;;;;;;;2.97;2.70;;;;;;;29.00;43.03;95564.31;4900668;29;20203;-80
2022/08/04 08:07:24;;;;;;;3.53;3.03;;;;;;;28.83;43.29;95566.75;4900961;29;20278;-82
2022/08/04 08:09:50;;;;;;;3.78;3.22;;;;;;;28.78;43.59;95562.28;4905907;29;20267;-82
2022/08/04 08:12:17;;;;;;;3.38;2.78;;;;;;;28.84;42.88;95565.69;4905958;29;20242;-81
2022/08/04 08:14:45;;;;;;;2.92;2.72;;;;;;;29.01;43.25;95568.53;4908340;29;20218;-81
2022/08/04 08:17:12;;;;;;;3.20;2.90;;;;;;;29.13;42.45;95560.88;4907757;29;20241;-81
2022/08/04 08:19:38;;;;;;;5.45;2.67;;;;;;;29.22;41.96;95566.28;4907265;29;20301;-81
2022/08/04 08:22:05;;;;;;;3.03;2.80;;;;;;;29.28;42.65;95572.28;4899693;29;20234;-81
2022/08/04 08:24:36;;;;;;;4.47;2.90;;;;;;;29.30;41.35;95565.59;4904825;29;20238;-82
2022/08/04 08:27:04;;;;;;;3.38;3.10;;;;;;;29.36;41.69;95558.31;4908890;29;20223;-84
2022/08/04 08:29:33;;;;;;;3.10;2.80;;;;;;;29.37;42.02;95559.91;4909035;29;20207;-82
2022/08/04 08:32:01;;;;;;;3.10;2.90;;;;;;;29.37;41.34;95562.56;4907261;29;20203;-82
2022/08/04 08:34:29;;;;;;;5.32;3.10;;;;;;;29.48;40.83;95562.06;4907045;29;20258;-82
2022/08/04 08:37:01;;;;;;;3.67;2.78;;;;;;;29.53;40.87;95561.19;4907392;29;20649;-81
2022/08/04 08:39:36;;;;;;;4.25;2.83;;;;;;;29.64;41.06;95554.56;4907305;29;20206;-82
2022/08/04 08:42:53;;;;;;;5.28;2.78;;;;;;;29.79;40.58;95553.47;4908988;29;20226;-83
2022/08/04 08:45:58;;;;;;;3.25;3.05;;;;;;;29.96;40.48;95555.50;4814603;29;20236;-82
2022/08/04 08:48:59;;;;;;;3.40;3.17;;;;;;;30.05;39.95;95559.03;4881213;29;20242;-83
2022/08/04 08:51:44;;;;;;;3.17;2.90;;;;;;;30.16;40.50;95557.72;4904068;29;20583;-82
2022/08/04 08:54:58;;;;;;;5.07;2.88;;;;;;;30.17;39.03;95557.41;4894008;29;20239;-84
2022/08/04 08:57:46;;;;;;;2.85;2.65;;;;;;;30.26;39.99;95562.78;4885698;29;20247;-83
2022/08/04 09:00:18;;;;;;;5.13;3.17;;;;;;;30.25;38.75;95561.22;4901290;29;20829;-83
2022/08/04 09:03:01;;;;;;;2.78;2.58;;;;;;;30.36;38.84;95559.91;4905955;29;20239;-83
2022/08/04 09:05:50;;;;;;;3.35;2.80;;;;;;;30.42;38.61;95565.84;4887576;29;20206;-82
2022/08/04 09:08:29;;;;;;;3.80;2.50;;;;;;;30.42;38.63;95560.53;4904805;29;20416;-83
2022/08/04 09:11:05;;;;;;;2.95;2.65;;;;;;;30.57;38.58;95557.56;4905238;29;20222;-84
2022/08/04 09:13:39;;;;;;;6.10;2.70;;;;;;;30.49;37.10;95561.69;4905867;29;20242;-83
2022/08/04 09:16:19;;;;;;;3.33;3.03;;;;;;;30.58;37.65;95561.78;4904979;29;20226;-83
2022/08/04 09:18:53;;;;;;;3.55;2.78;;;;;;;30.74;36.94;95552.34;4906234;29;20206;-82
2022/08/04 09:21:25;;;;;;;3.00;2.80;;;;;;;30.92;37.86;95554.00;4904824;29;20659;-83
2022/08/04 09:24:02;;;;;;;4.05;2.83;;;;;;;31.08;37.68;95550.91;4905774;29;20239;-82
2022/08/04 09:26:34;;;;;;;7.10;2.95;;;;;;;31.24;36.91;95554.75;4904976;29;20213;-83
2022/08/04 09:29:10;;;;;;;2.70;2.50;;;;;;;31.39;37.07;95553.53;4904984;29;20289;-82
2022/08/04 09:31:46;;;;;;;2.70;2.50;;;;;;;31.54;37.20;95555.78;4903650;29;20230;-82
2022/08/04 09:34:20;;;;;;;2.80;2.60;;;;;;;31.69;36.44;95555.38;4903818;29;20219;-83
2022/08/04 09:36:53;;;;;;;4.85;2.17;;;;;;;31.72;35.16;95562.75;4905070;29;20230;-83
2022/08/04 09:39:26;;;;;;;2.97;2.67;;;;;;;31.71;35.02;95549.75;4904695;29;20262;-82
2022/08/04 09:42:04;;;;;;;2.70;2.50;;;;;;;31.80;34.60;95553.19;4900969;29;20250;-83
2022/08/04 09:44:45;;;;;;;3.92;3.35;;;;;;;31.94;34.69;95553.84;4902059;29;20258;-83
2022/08/04 09:47:19;;;;;;;3.65;2.53;;;;;;;32.02;34.80;95554.91;4902431;29;20313;-81
2022/08/04 09:49:52;;;;;;;3.20;3.00;;;;;;;32.15;34.07;95559.28;4902590;29;20568;-83
2022/08/04 09:52:28;;;;;;;2.60;2.40;;;;;;;32.20;33.08;95553.84;4900393;29;20442;-82
2022/08/04 09:55:04;;;;;;;2.67;2.47;;;;;;;32.27;32.45;95554.16;4901808;29;20257;-82
2022/08/04 09:57:43;;;;;;;2.65;2.10;;;;;;;32.26;31.18;95547.28;4901070;29;20233;-81
2022/08/04 10:00:15;;;;;;;2.47;2.22;;;;;;;32.22;31.41;95549.00;4898656;29;20215;-82
2022/08/04 10:02:46;;;;;;;2.65;1.98;;;;;;;32.07;31.17;95552.09;4900822;29;20611;-82
2022/08/04 10:05:16;;;;;;;2.58;2.33;;;;;;;32.05;32.06;95546.31;4883753;29;20712;-83
2022/08/04 10:07:57;;;;;;;4.35;2.33;;;;;;;32.14;32.51;95545.19;4882969;29;20228;-81
2022/08/04 10:10:33;;;;;;;2.67;2.30;;;;;;;32.17;32.22;95547.22;4882306;29;20277;-83
2022/08/04 10:13:16;;;;;;;2.08;1.98;;;;;;;32.22;32.38;95541.00;4881632;29;20261;-82
2022/08/04 10:15:52;;;;;;;2.65;2.17;;;;;;;32.25;32.07;95540.38;4882303;29;20672;-82
2022/08/04 10:18:38;;;;;;;2.95;2.28;;;;;;;32.29;31.83;95541.31;4881469;29;20282;-82
2022/08/04 10:21:10;;;;;;;3.40;2.80;;;;;;;32.41;31.60;95544.09;4882615;29;20196;-83
2022/08/04 10:23:47;;;;;;;2.80;2.60;;;;;;;32.51;31.21;95532.34;4883889;29;20242;-82
2022/08/04 10:26:28;;;;;;;2.33;2.10;;;;;;;32.68;30.56;95531.50;4900709;29;20265;-82
2022/08/04 10:29:03;;;;;;;5.00;2.25;;;;;;;32.78;30.81;95531.19;4902341;29;20255;-83
2022/08/04 10:31:35;;;;;;;2.17;2.08;;;;;;;32.82;30.13;95522.22;4902339;29;20202;-82
2022/08/04 10:34:05;;;;;;;2.97;2.38;;;;;;;32.97;30.19;95530.78;4901085;29;20234;-82
2022/08/04 10:36:41;;;;;;;2.40;2.20;;;;;;;33.01;29.88;95529.06;4903610;29;20231;-84
2022/08/04 10:39:12;;;;;;;3.42;2.15;;;;;;;32.91;30.06;95522.97;4903337;29;20210;-82
2022/08/04 10:41:47;;;;;;;2.22;2.05;;;;;;;32.84;30.85;95522.69;4902676;29;20274;-82
2022/08/04 10:44:23;;;;;;;5.03;2.28;;;;;;;32.88;30.97;95512.19;4903794;29;20238;-82
2022/08/04 10:46:55;;;;;;;2.20;2.00;;;;;;;33.07;30.41;95517.13;4902419;29;20306;-84
2022/08/04 10:49:24;;;;;;;2.60;2.40;;;;;;;33.10;30.07;95524.47;4903788;29;20203;-83
2022/08/04 10:51:54;;;;;;;3.40;2.17;;;;;;;33.14;30.38;95525.38;4900278;29;20210;-84
2022/08/04 10:54:27;;;;;;;6.97;6.28;;;;;;;33.34;29.48;95522.00;4901756;29;20230;-83
2022/08/04 10:56:59;;;;;;;3.17;2.97;;;;;;;33.54;29.41;95523.16;4901417;29;20233;-82
2022/08/04 10:59:29;;;;;;;3.30;3.00;;;;;;;33.75;29.92;95517.81;4898616;29;20214;-82
2022/08/04 11:02:09;;;;;;;2.55;2.20;;;;;;;33.90;28.92;95525.28;4899955;29;20239;-82
2022/08/04 11:04:41;;;;;;;2.47;2.28;;;;;;;33.96;28.64;95514.06;4904293;29;20230;-83
2022/08/04 11:07:08;;;;;;;3.08;2.83;;;;;;;34.04;29.02;95511.66;4901765;29;20262;-82
2022/08/04 11:09:35;;;;;;;2.20;2.10;;;;;;;33.91;27.75;95511.59;4901978;29;20214;-83
2022/08/04 11:12:09;;;;;;;2.00;1.90;;;;;;;34.00;28.50;95508.06;4901429;29;20432;-83
2022/08/04 11:14:39;;;;;;;3.13;1.95;;;;;;;34.13;27.98;95523.81;4900423;29;20615;-82
2022/08/04 11:17:11;;;;;;;2.35;2.15;;;;;;;34.28;28.15;95509.09;4902225;29;20226;-83
2022/08/04 11:19:46;;;;;;;9.60;8.75;;;;;;;34.31;27.97;95505.75;4901702;29;20226;-81
2022/08/04 11:22:23;;;;;;;4.38;4.07;;;;;;;34.32;27.64;95506.53;4900964;29;20245;-81
2022/08/04 11:24:55;;;;;;;2.22;2.10;;;;;;;34.41;27.23;95508.03;4902803;29;20226;-82
2022/08/04 11:27:29;;;;;;;4.07;2.40;;;;;;;34.50;27.41;95505.25;4903035;29;20230;-82
2022/08/04 11:30:02;;;;;;;3.00;2.80;;;;;;;34.58;27.69;95507.06;4901659;29;20213;-83
2022/08/04 11:32:37;;;;;;;2.25;2.08;;;;;;;34.64;27.66;95497.69;4901432;29;20211;-82
2022/08/04 11:35:09;;;;;;;3.20;2.10;;;;;;;34.63;27.38;95499.63;4902086;29;20209;-82
2022/08/04 11:37:44;;;;;;;2.40;2.20;;;;;;;34.64;27.79;95511.84;4902717;29;20223;-82
2022/08/04 11:40:18;;;;;;;2.17;2.08;;;;;;;34.67;28.23;95513.09;4901150;29;20583;-82
2022/08/04 11:42:54;;;;;;;2.60;2.00;;;;;;;34.70;27.43;95509.75;4904416;29;20234;-82
2022/08/04 11:45:28;;;;;;;2.95;2.05;;;;;;;34.56;27.47;95503.94;4906200;29;20246;-82
2022/08/04 11:48:01;;;;;;;2.72;2.30;;;;;;;34.51;28.17;95506.81;4908836;29;20229;-83
2022/08/04 11:50:37;;;;;;;3.70;2.03;;;;;;;34.58;27.76;95510.53;4909790;29;20213;-83
2022/08/04 11:53:05;;;;;;;2.28;2.08;;;;;;;34.78;28.37;95500.09;4907976;29;20258;-83
2022/08/04 11:55:33;;;;;;;4.68;2.05;;;;;;;34.74;27.45;95505.31;4910577;29;20339;-82
2022/08/04 11:58:00;;;;;;;2.05;1.90;;;;;;;34.54;27.59;95508.84;4910515;29;20337;-82
2022/08/04 12:00:31;;;;;;;2.97;2.05;;;;;;;34.62;28.15;95508.75;4909530;29;20750;-83
2022/08/04 12:03:22;;;;;;;2.05;1.85;;;;;;;34.80;27.50;95500.56;4908492;29;20607;-82
2022/08/04 12:05:58;;;;;;;3.78;2.03;;;;;;;34.76;27.95;95505.75;4911449;29;20238;-83
2022/08/04 12:08:39;;;;;;;4.18;2.03;;;;;;;34.89;27.81;95502.00;4911791;29;20230;-81
2022/08/04 12:11:15;;;;;;;2.40;2.30;;;;;;;35.05;27.53;95493.31;4910027;29;20210;-83
2022/08/04 12:13:48;;;;;;;4.30;3.90;;;;;;;35.13;27.30;95500.47;4911651;29;20238;-83
2022/08/04 12:16:17;;;;;;;4.18;2.30;;;;;;;35.33;27.97;95496.91;4911049;29;20248;-83